SKEJSKCC

Guest
Details From SKEJ - YARIGUIES
To SKCC - CAMILO DAZA
Flight Number -
Tags generated
Created
Modified
Stats Distance 94 nm / 175 km
Max Altitude 5,800 ft / 1,768 m
Waypoints 3
Social Downloads 0
Likes 0
Share VATSIM

Download

Looking for another format? Having issues loading an existing format? Contact us
Advertisement - Login to hide

Notes

Basic altitude profile: - Ascent Rate: 2500ft/min - Ascent Speed: 250kts - Cruise Altitude: 35000ft - Cruise Speed: 420kts - Descent Rate: 1500ft/min - Descent Speed: 250kts Options: - Use NATs: yes - Use PACOTS: yes - Use low airways: yes - Use high airways: yes

Route

SKEJ ALOTE SKCC

ID Type Via Altitude Latitude Longitude Leg Dist Tot Dist Heading (true) Name
O SKEJ APT - 0 ft / 0 m 7.02433˚ -73.80680˚ - 0 nm - YARIGUIES
ALOTE FIX - 5,800 ft / 1,768 m 7.66944˚ -72.89222˚ 66 nm 66 nm 55° / 55° -
O SKCC APT - 0 ft / 0 m 7.92881˚ -72.51292˚ 27 nm 94 nm 55° / 55° CAMILO DAZA

Altitude Profile

Advertisement - Login to hide

SKEJ

Details ICAO SKEJ (EJA)
Name YARIGUIES
Region Colombia
Timezone America/Bogota (UTC-5.0)
Stats Elevation 412 ft / 126 m (AMSL)
Location 7.024329° -73.806798°
Runways 1
Magnetic Variation 7.815° W

METAR

SKEJ 132300Z VRB02KT 9999 FEW015 28/24 A2980

Decode

TAF

Not found

Departure Runways

ID Width Length Bearing (true) Bearing (mag) Surface Threshold Offset Overrun Length
04 148 ft / 45 m 5,930 ft / 1,808 m 30.76° 38.57° Asphalt 0 ft / 0 m 0 ft / 0 m
22 148 ft / 45 m 5,930 ft / 1,808 m 210.76° 218.57° Asphalt 0 ft / 0 m 0 ft / 0 m

SKCC

Details ICAO SKCC (CUC)
Name CAMILO DAZA
Region Colombia
Timezone America/Bogota (UTC-5.0)
Stats Elevation 1,096 ft / 334 m (AMSL)
Location 7.928813° -72.512920°
Runways 2
Magnetic Variation 8.764° W

METAR

SKCC 132300Z 36003KT 9999 SCT020 SCT090 26/22 A2989

Decode

TAF

Not found

Destination Runways

ID Width Length Bearing (true) Bearing (mag) Surface Threshold Offset Overrun Length
02 148 ft / 45 m 6,371 ft / 1,942 m 16.91° 25.67° Asphalt 0 ft / 0 m 0 ft / 0 m
16 148 ft / 45 m 7,724 ft / 2,354 m 147.88° 156.64° Asphalt 0 ft / 0 m 0 ft / 0 m
20 148 ft / 45 m 6,371 ft / 1,942 m 196.91° 205.67° Asphalt 0 ft / 0 m 0 ft / 0 m
34 148 ft / 45 m 7,724 ft / 2,354 m 327.88° 336.64° Asphalt 0 ft / 0 m 0 ft / 0 m

Approach Navaids

Runway Type Ident Frequency Range Bearing (true) Bearing (mag) Slope Elevation
16 Localiser ICUC 109.90 MHz 18 nm / 33 km 148.07° 156.83° - 1,096 ft / 334 m (AMSL)
16 Glidescope ICUC 109.90 MHz 10 nm / 19 km 147.88° 156.64° 3.50° 1,096 ft / 334 m (AMSL)